sensor_id;sensor_type;location;lat;lon;timestamp;pressure;altitude;pressure_sealevel;temperature;humidity
79150;BME280;68563;45.644;13.782;2023-06-10T00:00:47;100591.16;;;23.47;57.32
79150;BME280;68563;45.644;13.782;2023-06-10T00:03:12;100585.53;;;23.39;57.17
79150;BME280;68563;45.644;13.782;2023-06-10T00:05:38;100582.88;;;23.52;56.82
79150;BME280;68563;45.644;13.782;2023-06-10T00:08:04;100583.84;;;23.38;57.21
79150;BME280;68563;45.644;13.782;2023-06-10T00:10:35;100585.97;;;23.33;57.41
79150;BME280;68563;45.644;13.782;2023-06-10T00:13:02;100582.91;;;23.39;57.37
79150;BME280;68563;45.644;13.782;2023-06-10T00:15:29;100582.59;;;23.44;57.07
79150;BME280;68563;45.644;13.782;2023-06-10T00:17:54;100582.91;;;23.39;57.30
79150;BME280;68563;45.644;13.782;2023-06-10T00:20:20;100587.09;;;23.29;57.69
79150;BME280;68563;45.644;13.782;2023-06-10T00:22:47;100588.38;;;23.23;57.60
79150;BME280;68563;45.644;13.782;2023-06-10T00:25:13;100596.41;;;23.21;57.91
79150;BME280;68563;45.644;13.782;2023-06-10T00:27:39;100580.94;;;23.15;57.83
79150;BME280;68563;45.644;13.782;2023-06-10T00:30:05;100584.53;;;23.14;57.92
79150;BME280;68563;45.644;13.782;2023-06-10T00:32:35;100590.91;;;23.24;57.66
79150;BME280;68563;45.644;13.782;2023-06-10T00:35:02;100586.47;;;23.25;57.83
79150;BME280;68563;45.644;13.782;2023-06-10T00:37:28;100581.00;;;23.28;57.39
79150;BME280;68563;45.644;13.782;2023-06-10T00:39:54;100571.16;;;23.17;57.92
79150;BME280;68563;45.644;13.782;2023-06-10T00:42:20;100579.06;;;23.17;58.01
79150;BME280;68563;45.644;13.782;2023-06-10T00:44:46;100573.94;;;23.14;57.69
79150;BME280;68563;45.644;13.782;2023-06-10T00:47:12;100573.22;;;23.12;57.76
79150;BME280;68563;45.644;13.782;2023-06-10T00:49:37;100570.38;;;23.15;57.61
79150;BME280;68563;45.644;13.782;2023-06-10T00:52:04;100569.94;;;23.08;57.62
79150;BME280;68563;45.644;13.782;2023-06-10T00:54:31;100566.75;;;23.03;57.89
79150;BME280;68563;45.644;13.782;2023-06-10T00:57:00;100560.53;;;22.91;58.07
79150;BME280;68563;45.644;13.782;2023-06-10T00:59:28;100564.75;;;22.94;58.01
79150;BME280;68563;45.644;13.782;2023-06-10T01:01:53;100561.25;;;22.93;58.15
79150;BME280;68563;45.644;13.782;2023-06-10T01:04:20;100555.97;;;22.93;58.10
79150;BME280;68563;45.644;13.782;2023-06-10T01:09:31;100552.59;;;22.91;58.06
79150;BME280;68563;45.644;13.782;2023-06-10T01:14:41;100554.06;;;22.95;57.49
79150;BME280;68563;45.644;13.782;2023-06-10T01:17:10;100535.47;;;22.84;57.22
79150;BME280;68563;45.644;13.782;2023-06-10T01:19:37;100546.03;;;22.84;57.52
79150;BME280;68563;45.644;13.782;2023-06-10T01:22:03;100546.75;;;22.86;57.15
79150;BME280;68563;45.644;13.782;2023-06-10T01:24:28;100543.06;;;22.76;57.51
79150;BME280;68563;45.644;13.782;2023-06-10T01:27:00;100552.34;;;22.82;57.52
79150;BME280;68563;45.644;13.782;2023-06-10T01:29:33;100541.59;;;22.85;57.63
79150;BME280;68563;45.644;13.782;2023-06-10T01:32:13;100543.28;;;22.86;57.85
79150;BME280;68563;45.644;13.782;2023-06-10T01:34:42;100546.69;;;22.88;57.69
79150;BME280;68563;45.644;13.782;2023-06-10T01:37:11;100521.47;;;22.69;57.62
79150;BME280;68563;45.644;13.782;2023-06-10T01:39:39;100523.63;;;22.77;57.56
79150;BME280;68563;45.644;13.782;2023-06-10T01:42:05;100540.94;;;22.81;57.57
79150;BME280;68563;45.644;13.782;2023-06-10T01:44:32;100527.41;;;22.73;57.54
79150;BME280;68563;45.644;13.782;2023-06-10T01:46:57;100536.38;;;22.70;58.00
79150;BME280;68563;45.644;13.782;2023-06-10T01:49:22;100535.22;;;22.74;58.15
79150;BME280;68563;45.644;13.782;2023-06-10T01:51:49;100543.34;;;22.71;57.94
79150;BME280;68563;45.644;13.782;2023-06-10T01:54:14;100538.38;;;22.67;57.75
79150;BME280;68563;45.644;13.782;2023-06-10T01:56:40;100537.66;;;22.77;57.47
79150;BME280;68563;45.644;13.782;2023-06-10T01:59:05;100538.50;;;22.78;57.45
79150;BME280;68563;45.644;13.782;2023-06-10T02:01:31;100542.53;;;22.84;57.36
79150;BME280;68563;45.644;13.782;2023-06-10T02:03:56;100538.31;;;22.81;57.25
79150;BME280;68563;45.644;13.782;2023-06-10T02:06:21;100544.41;;;22.82;57.37
79150;BME280;68563;45.644;13.782;2023-06-10T02:08:47;100543.38;;;22.84;57.34
79150;BME280;68563;45.644;13.782;2023-06-10T02:11:12;100538.94;;;22.85;57.35
79150;BME280;68563;45.644;13.782;2023-06-10T02:13:38;100524.16;;;22.82;57.19
79150;BME280;68563;45.644;13.782;2023-06-10T02:16:04;100537.59;;;22.92;57.26
79150;BME280;68563;45.644;13.782;2023-06-10T02:18:31;100542.34;;;22.87;57.40
79150;BME280;68563;45.644;13.782;2023-06-10T02:20:56;100537.78;;;22.89;57.16
79150;BME280;68563;45.644;13.782;2023-06-10T02:23:22;100541.06;;;22.92;57.09
79150;BME280;68563;45.644;13.782;2023-06-10T02:25:47;100540.34;;;22.90;56.90
79150;BME280;68563;45.644;13.782;2023-06-10T02:28:13;100545.06;;;22.85;56.93
79150;BME280;68563;45.644;13.782;2023-06-10T02:30:41;100543.28;;;22.86;56.83
79150;BME280;68563;45.644;13.782;2023-06-10T02:33:07;100530.16;;;22.71;57.16
79150;BME280;68563;45.644;13.782;2023-06-10T02:35:36;100550.97;;;22.76;57.54
79150;BME280;68563;45.644;13.782;2023-06-10T02:38:02;100548.41;;;22.74;57.35
79150;BME280;68563;45.644;13.782;2023-06-10T02:40:27;100538.72;;;22.75;57.49
79150;BME280;68563;45.644;13.782;2023-06-10T02:42:53;100537.47;;;22.81;57.05
79150;BME280;68563;45.644;13.782;2023-06-10T02:45:18;100535.13;;;22.76;57.12
79150;BME280;68563;45.644;13.782;2023-06-10T02:47:44;100534.38;;;22.74;56.97
79150;BME280;68563;45.644;13.782;2023-06-10T02:50:09;100553.38;;;22.66;57.19
79150;BME280;68563;45.644;13.782;2023-06-10T02:52:35;100545.22;;;22.56;57.77
79150;BME280;68563;45.644;13.782;2023-06-10T02:55:00;100561.69;;;22.60;57.55
79150;BME280;68563;45.644;13.782;2023-06-10T02:57:26;100555.78;;;22.69;57.28
79150;BME280;68563;45.644;13.782;2023-06-10T02:59:51;100550.22;;;22.74;57.31
79150;BME280;68563;45.644;13.782;2023-06-10T03:02:18;100552.44;;;22.67;57.28
79150;BME280;68563;45.644;13.782;2023-06-10T03:04:44;100555.50;;;22.74;57.31
79150;BME280;68563;45.644;13.782;2023-06-10T03:07:10;100554.22;;;22.67;57.24
79150;BME280;68563;45.644;13.782;2023-06-10T03:09:36;100557.50;;;22.70;57.19
79150;BME280;68563;45.644;13.782;2023-06-10T03:12:02;100547.34;;;22.64;57.13
79150;BME280;68563;45.644;13.782;2023-06-10T03:14:27;100543.47;;;22.70;57.26
79150;BME280;68563;45.644;13.782;2023-06-10T03:16:53;100546.19;;;22.68;57.32
79150;BME280;68563;45.644;13.782;2023-06-10T03:19:18;100525.06;;;22.68;57.38
79150;BME280;68563;45.644;13.782;2023-06-10T03:21:49;100530.16;;;22.71;57.03
79150;BME280;68563;45.644;13.782;2023-06-10T03:24:15;100526.22;;;22.64;57.05
79150;BME280;68563;45.644;13.782;2023-06-10T03:26:41;100528.63;;;22.54;56.95
79150;BME280;68563;45.644;13.782;2023-06-10T03:29:07;100516.56;;;22.50;56.78
79150;BME280;68563;45.644;13.782;2023-06-10T03:31:32;100535.50;;;22.57;57.19
79150;BME280;68563;45.644;13.782;2023-06-10T03:33:58;100521.66;;;22.53;57.17
79150;BME280;68563;45.644;13.782;2023-06-10T03:36:23;100533.91;;;22.54;57.12
79150;BME280;68563;45.644;13.782;2023-06-10T03:38:49;100535.34;;;22.45;57.30
79150;BME280;68563;45.644;13.782;2023-06-10T03:41:17;100527.03;;;22.52;57.04
79150;BME280;68563;45.644;13.782;2023-06-10T03:43:42;100535.31;;;22.60;56.72
79150;BME280;68563;45.644;13.782;2023-06-10T03:46:09;100537.19;;;22.58;56.77
79150;BME280;68563;45.644;13.782;2023-06-10T03:48:35;100531.16;;;22.56;56.90
79150;BME280;68563;45.644;13.782;2023-06-10T03:51:01;100527.75;;;22.54;56.66
79150;BME280;68563;45.644;13.782;2023-06-10T03:53:26;100531.91;;;22.58;56.51
79150;BME280;68563;45.644;13.782;2023-06-10T03:55:52;100527.47;;;22.58;56.48
79150;BME280;68563;45.644;13.782;2023-06-10T03:58:17;100529.81;;;22.63;56.38
79150;BME280;68563;45.644;13.782;2023-06-10T04:00:43;100536.13;;;22.60;56.32
79150;BME280;68563;45.644;13.782;2023-06-10T04:03:10;100530.84;;;22.60;56.23
79150;BME280;68563;45.644;13.782;2023-06-10T04:05:40;100526.22;;;22.64;56.07
79150;BME280;68563;45.644;13.782;2023-06-10T04:08:05;100527.81;;;22.67;55.97
79150;BME280;68563;45.644;13.782;2023-06-10T04:10:32;100523.94;;;22.72;55.47
79150;BME280;68563;45.644;13.782;2023-06-10T04:12:57;100522.13;;;22.73;55.83
79150;BME280;68563;45.644;13.782;2023-06-10T04:15:22;100526.78;;;22.82;55.36
79150;BME280;68563;45.644;13.782;2023-06-10T04:17:48;100532.50;;;22.89;55.20
79150;BME280;68563;45.644;13.782;2023-06-10T04:20:14;100519.63;;;22.97;55.18
79150;BME280;68563;45.644;13.782;2023-06-10T04:22:40;100519.66;;;23.10;54.97
79150;BME280;68563;45.644;13.782;2023-06-10T04:25:08;100525.47;;;23.15;54.65
79150;BME280;68563;45.644;13.782;2023-06-10T04:27:34;100518.09;;;23.20;54.37
79150;BME280;68563;45.644;13.782;2023-06-10T04:29:59;100514.00;;;23.29;53.98
79150;BME280;68563;45.644;13.782;2023-06-10T04:32:24;100513.56;;;23.35;54.11
79150;BME280;68563;45.644;13.782;2023-06-10T04:34:51;100519.38;;;23.40;53.62
79150;BME280;68563;45.644;13.782;2023-06-10T04:37:17;100507.72;;;23.30;53.55
79150;BME280;68563;45.644;13.782;2023-06-10T04:39:42;100501.50;;;23.31;53.61
79150;BME280;68563;45.644;13.782;2023-06-10T04:42:08;100513.56;;;23.35;53.67
79150;BME280;68563;45.644;13.782;2023-06-10T04:44:33;100508.28;;;23.35;53.53
79150;BME280;68563;45.644;13.782;2023-06-10T04:46:59;100514.81;;;23.42;53.46
79150;BME280;68563;45.644;13.782;2023-06-10T04:49:24;100503.63;;;23.39;53.71
79150;BME280;68563;45.644;13.782;2023-06-10T04:51:49;100514.09;;;23.53;53.45
79150;BME280;68563;45.644;13.782;2023-06-10T04:54:16;100522.59;;;23.70;53.36
79150;BME280;68563;45.644;13.782;2023-06-10T04:56:42;100514.97;;;23.78;53.40
79150;BME280;68563;45.644;13.782;2023-06-10T04:59:07;100510.09;;;23.98;53.35
79150;BME280;68563;45.644;13.782;2023-06-10T05:01:32;100517.03;;;24.12;53.08
79150;BME280;68563;45.644;13.782;2023-06-10T05:03:58;100511.91;;;24.21;52.37
79150;BME280;68563;45.644;13.782;2023-06-10T05:06:23;100512.28;;;24.28;52.31
79150;BME280;68563;45.644;13.782;2023-06-10T05:08:49;100511.00;;;24.34;51.96
79150;BME280;68563;45.644;13.782;2023-06-10T05:11:14;100504.44;;;24.40;51.89
79150;BME280;68563;45.644;13.782;2023-06-10T05:13:41;100500.72;;;24.42;51.82
79150;BME280;68563;45.644;13.782;2023-06-10T05:16:08;100509.63;;;24.52;51.82
79150;BME280;68563;45.644;13.782;2023-06-10T05:18:34;100507.72;;;24.54;51.67
79150;BME280;68563;45.644;13.782;2023-06-10T05:21:01;100490.31;;;24.63;51.43
79150;BME280;68563;45.644;13.782;2023-06-10T05:23:26;100496.63;;;24.74;51.44
79150;BME280;68563;45.644;13.782;2023-06-10T05:25:52;100502.91;;;24.84;51.13
79150;BME280;68563;45.644;13.782;2023-06-10T05:28:17;100502.22;;;24.93;51.15
79150;BME280;68563;45.644;13.782;2023-06-10T05:30:43;100504.28;;;25.01;50.85
79150;BME280;68563;45.644;13.782;2023-06-10T05:33:09;100499.13;;;25.11;50.70
79150;BME280;68563;45.644;13.782;2023-06-10T05:35:34;100500.09;;;25.21;50.31
79150;BME280;68563;45.644;13.782;2023-06-10T05:37:59;100509.72;;;25.33;49.90
79150;BME280;68563;45.644;13.782;2023-06-10T05:40:25;100510.16;;;25.40;49.76
79150;BME280;68563;45.644;13.782;2023-06-10T05:42:50;100514.84;;;25.48;49.46
79150;BME280;68563;45.644;13.782;2023-06-10T05:45:16;100513.66;;;25.52;49.75
79150;BME280;68563;45.644;13.782;2023-06-10T05:47:41;100516.16;;;25.65;49.71
79150;BME280;68563;45.644;13.782;2023-06-10T05:50:07;100517.50;;;25.71;49.11
79150;BME280;68563;45.644;13.782;2023-06-10T05:52:34;100519.66;;;25.77;49.00
79150;BME280;68563;45.644;13.782;2023-06-10T05:55:00;100500.34;;;25.75;49.11
79150;BME280;68563;45.644;13.782;2023-06-10T05:57:25;100516.97;;;25.88;49.32
79150;BME280;68563;45.644;13.782;2023-06-10T05:59:51;100515.78;;;25.92;49.19
79150;BME280;68563;45.644;13.782;2023-06-10T06:02:16;100519.13;;;25.94;49.24
79150;BME280;68563;45.644;13.782;2023-06-10T06:04:42;100519.84;;;25.96;49.50
79150;BME280;68563;45.644;13.782;2023-06-10T06:07:07;100522.28;;;26.00;49.54
79150;BME280;68563;45.644;13.782;2023-06-10T06:09:33;100511.91;;;25.96;49.88
79150;BME280;68563;45.644;13.782;2023-06-10T06:11:58;100533.84;;;26.10;50.15
79150;BME280;68563;45.644;13.782;2023-06-10T06:14:23;100522.28;;;26.11;49.81
79150;BME280;68563;45.644;13.782;2023-06-10T06:16:49;100531.41;;;26.18;49.96
79150;BME280;68563;45.644;13.782;2023-06-10T06:19:14;100541.81;;;26.21;50.33
79150;BME280;68563;45.644;13.782;2023-06-10T06:21:41;100535.25;;;26.25;50.49
79150;BME280;68563;45.644;13.782;2023-06-10T06:24:06;100535.25;;;26.25;51.48
79150;BME280;68563;45.644;13.782;2023-06-10T06:26:32;100543.00;;;26.28;50.89
79150;BME280;68563;45.644;13.782;2023-06-10T06:28:57;100530.53;;;26.29;51.01
79150;BME280;68563;45.644;13.782;2023-06-10T06:31:23;100531.28;;;26.31;51.08
79150;BME280;68563;45.644;13.782;2023-06-10T06:33:48;100538.88;;;26.36;50.99
79150;BME280;68563;45.644;13.782;2023-06-10T06:36:13;100534.16;;;26.39;51.06
79150;BME280;68563;45.644;13.782;2023-06-10T06:38:40;100541.84;;;26.42;50.87
79150;BME280;68563;45.644;13.782;2023-06-10T06:41:06;100533.06;;;26.42;50.91
79150;BME280;68563;45.644;13.782;2023-06-10T06:43:32;100544.00;;;26.49;50.50
79150;BME280;68563;45.644;13.782;2023-06-10T06:45:58;100539.28;;;26.52;50.56
79150;BME280;68563;45.644;13.782;2023-06-10T06:48:23;100541.69;;;26.55;50.88
79150;BME280;68563;45.644;13.782;2023-06-10T06:50:49;100540.97;;;26.53;50.46
79150;BME280;68563;45.644;13.782;2023-06-10T06:53:14;100536.81;;;26.60;50.54
79150;BME280;68563;45.644;13.782;2023-06-10T06:55:40;100535.59;;;26.65;50.52
79150;BME280;68563;45.644;13.782;2023-06-10T06:58:05;100538.97;;;26.67;50.47
79150;BME280;68563;45.644;13.782;2023-06-10T07:00:31;100538.84;;;26.68;50.22
79150;BME280;68563;45.644;13.782;2023-06-10T07:02:57;100536.66;;;26.73;50.21
79150;BME280;68563;45.644;13.782;2023-06-10T07:05:23;100537.97;;;26.79;50.36
79150;BME280;68563;45.644;13.782;2023-06-10T07:07:50;100540.84;;;26.87;50.23
79150;BME280;68563;45.644;13.782;2023-06-10T07:10:20;100530.66;;;26.92;49.77
79150;BME280;68563;45.644;13.782;2023-06-10T07:12:47;100541.75;;;26.98;49.95
79150;BME280;68563;45.644;13.782;2023-06-10T07:15:13;100541.22;;;27.04;49.68
79150;BME280;68563;45.644;13.782;2023-06-10T07:17:38;100539.97;;;27.08;49.47
79150;BME280;68563;45.644;13.782;2023-06-10T07:20:04;100539.75;;;27.11;49.29
79150;BME280;68563;45.644;13.782;2023-06-10T07:22:30;100532.59;;;27.12;49.31
79150;BME280;68563;45.644;13.782;2023-06-10T07:24:56;100542.59;;;27.19;49.46
79150;BME280;68563;45.644;13.782;2023-06-10T07:27:21;100533.63;;;27.20;49.22
79150;BME280;68563;45.644;13.782;2023-06-10T07:29:47;100536.03;;;27.23;48.71
79150;BME280;68563;45.644;13.782;2023-06-10T07:32:12;100533.09;;;27.27;48.86
79150;BME280;68563;45.644;13.782;2023-06-10T07:34:37;100533.66;;;27.30;48.57
79150;BME280;68563;45.644;13.782;2023-06-10T07:37:03;100536.91;;;27.34;48.56
79150;BME280;68563;45.644;13.782;2023-06-10T07:39:28;100527.94;;;27.35;48.30
79150;BME280;68563;45.644;13.782;2023-06-10T07:41:54;100524.47;;;27.34;48.22
79150;BME280;68563;45.644;13.782;2023-06-10T07:44:22;100522.53;;;27.36;48.63
79150;BME280;68563;45.644;13.782;2023-06-10T07:46:47;100537.00;;;27.44;47.95
79150;BME280;68563;45.644;13.782;2023-06-10T07:49:12;100535.03;;;27.46;47.75
79150;BME280;68563;45.644;13.782;2023-06-10T07:51:38;100531.25;;;27.48;48.06
79150;BME280;68563;45.644;13.782;2023-06-10T07:54:03;100541.09;;;27.58;48.06
79150;BME280;68563;45.644;13.782;2023-06-10T07:56:29;100527.63;;;27.49;47.53
79150;BME280;68563;45.644;13.782;2023-06-10T07:58:54;100536.38;;;27.61;47.15
79150;BME280;68563;45.644;13.782;2023-06-10T08:01:20;100539.44;;;27.57;47.37
79150;BME280;68563;45.644;13.782;2023-06-10T08:03:45;100545.28;;;27.50;47.96
79150;BME280;68563;45.644;13.782;2023-06-10T08:06:11;100547.78;;;27.52;47.84
79150;BME280;68563;45.644;13.782;2023-06-10T08:08:37;100532.94;;;27.49;47.38
79150;BME280;68563;45.644;13.782;2023-06-10T08:11:07;100542.63;;;27.50;47.67
79150;BME280;68563;45.644;13.782;2023-06-10T08:13:32;100543.34;;;27.52;47.74
79150;BME280;68563;45.644;13.782;2023-06-10T08:15:58;100552.72;;;27.57;48.01
79150;BME280;68563;45.644;13.782;2023-06-10T08:18:23;100535.47;;;27.51;47.91
79150;BME280;68563;45.644;13.782;2023-06-10T08:20:49;100547.25;;;27.58;47.61
79150;BME280;68563;45.644;13.782;2023-06-10T08:23:14;100538.59;;;27.56;47.63
79150;BME280;68563;45.644;13.782;2023-06-10T08:25:39;100540.28;;;27.57;47.56
79150;BME280;68563;45.644;13.782;2023-06-10T08:28:05;100542.78;;;27.59;47.69
79150;BME280;68563;45.644;13.782;2023-06-10T08:30:30;100546.19;;;27.61;47.16
79150;BME280;68563;45.644;13.782;2023-06-10T08:32:56;100529.75;;;27.55;46.92
79150;BME280;68563;45.644;13.782;2023-06-10T08:35:21;100542.25;;;27.65;46.88
79150;BME280;68563;45.644;13.782;2023-06-10T08:37:47;100527.84;;;27.67;47.00
79150;BME280;68563;45.644;13.782;2023-06-10T08:40:12;100542.03;;;27.78;47.44
79150;BME280;68563;45.644;13.782;2023-06-10T08:42:56;100546.50;;;27.77;47.21
79150;BME280;68563;45.644;13.782;2023-06-10T08:45:24;100546.22;;;27.70;46.77
79150;BME280;68563;45.644;13.782;2023-06-10T08:47:56;100538.63;;;27.66;46.93
79150;BME280;68563;45.644;13.782;2023-06-10T08:50:22;100542.22;;;27.55;47.69
79150;BME280;68563;45.644;13.782;2023-06-10T08:52:50;100538.13;;;27.51;48.58
79150;BME280;68563;45.644;13.782;2023-06-10T08:55:23;100544.88;;;27.55;48.89
79150;BME280;68563;45.644;13.782;2023-06-10T08:57:51;100542.47;;;27.52;50.44
79150;BME280;68563;45.644;13.782;2023-06-10T09:00:18;100541.81;;;27.38;50.85
79150;BME280;68563;45.644;13.782;2023-06-10T09:02:44;100531.72;;;27.32;50.35
79150;BME280;68563;45.644;13.782;2023-06-10T09:05:10;100537.44;;;27.28;50.29
79150;BME280;68563;45.644;13.782;2023-06-10T09:07:36;100531.88;;;27.31;50.26
79150;BME280;68563;45.644;13.782;2023-06-10T09:10:03;100545.75;;;27.34;49.86
79150;BME280;68563;45.644;13.782;2023-06-10T09:12:29;100543.50;;;27.39;49.54
79150;BME280;68563;45.644;13.782;2023-06-10T09:14:55;100539.06;;;27.40;49.54
79150;BME280;68563;45.644;13.782;2023-06-10T09:17:21;100545.28;;;27.50;49.75
79150;BME280;68563;45.644;13.782;2023-06-10T09:19:47;100539.72;;;27.53;48.58
79150;BME280;68563;45.644;13.782;2023-06-10T09:22:13;100542.47;;;27.52;48.50
79150;BME280;68563;45.644;13.782;2023-06-10T09:24:39;100544.75;;;27.57;48.28
79150;BME280;68563;45.644;13.782;2023-06-10T09:27:06;100546.88;;;27.63;49.13
79150;BME280;68563;45.644;13.782;2023-06-10T09:29:53;100537.19;;;27.62;49.32
79150;BME280;68563;45.644;13.782;2023-06-10T09:32:19;100538.44;;;27.58;49.48
79150;BME280;68563;45.644;13.782;2023-06-10T09:34:45;100536.03;;;27.54;49.09
79150;BME280;68563;45.644;13.782;2023-06-10T09:37:11;100547.41;;;27.57;49.39
79150;BME280;68563;45.644;13.782;2023-06-10T09:39:40;100544.88;;;27.55;50.37
79150;BME280;68563;45.644;13.782;2023-06-10T09:42:18;100546.97;;;27.51;50.08
79150;BME280;68563;45.644;13.782;2023-06-10T09:44:50;100549.88;;;27.48;50.88
79150;BME280;68563;45.644;13.782;2023-06-10T09:47:20;100547.38;;;27.47;50.48
79150;BME280;68563;45.644;13.782;2023-06-10T09:49:46;100556.19;;;27.47;50.46
79150;BME280;68563;45.644;13.782;2023-06-10T09:52:12;100546.78;;;27.43;50.15
79150;BME280;68563;45.644;13.782;2023-06-10T09:54:37;100540.41;;;27.34;50.41
79150;BME280;68563;45.644;13.782;2023-06-10T09:57:07;100536.91;;;27.34;51.62
79150;BME280;68563;45.644;13.782;2023-06-10T09:59:32;100542.94;;;27.36;51.53
79150;BME280;68563;45.644;13.782;2023-06-10T10:02:00;100537.91;;;27.33;51.06
79150;BME280;68563;45.644;13.782;2023-06-10T10:04:26;100530.75;;;27.33;51.16
79150;BME280;68563;45.644;13.782;2023-06-10T10:06:52;100530.91;;;27.32;50.59
79150;BME280;68563;45.644;13.782;2023-06-10T10:09:17;100526.22;;;27.24;50.88
79150;BME280;68563;45.644;13.782;2023-06-10T10:11:44;100526.34;;;27.22;50.75
79150;BME280;68563;45.644;13.782;2023-06-10T10:14:10;100524.63;;;27.12;51.49
79150;BME280;68563;45.644;13.782;2023-06-10T10:16:37;100522.09;;;27.10;50.13
79150;BME280;68563;45.644;13.782;2023-06-10T10:19:13;100520.03;;;27.14;49.11
79150;BME280;68563;45.644;13.782;2023-06-10T10:21:55;100507.84;;;27.11;48.62
79150;BME280;68563;45.644;13.782;2023-06-10T10:24:31;100528.56;;;27.17;49.14
79150;BME280;68563;45.644;13.782;2023-06-10T10:26:58;100520.47;;;27.19;48.42
79150;BME280;68563;45.644;13.782;2023-06-10T10:29:31;100510.94;;;27.16;49.34
79150;BME280;68563;45.644;13.782;2023-06-10T10:31:59;100503.50;;;27.10;50.50
79150;BME280;68563;45.644;13.782;2023-06-10T10:34:41;100488.53;;;27.09;50.31
79150;BME280;68563;45.644;13.782;2023-06-10T10:37:08;100467.50;;;27.06;51.36
79150;BME280;68563;45.644;13.782;2023-06-10T10:39:35;100501.06;;;27.28;51.27
79150;BME280;68563;45.644;13.782;2023-06-10T10:42:02;100482.09;;;27.12;50.49
79150;BME280;68563;45.644;13.782;2023-06-10T10:44:29;100509.28;;;27.25;50.26
79150;BME280;68563;45.644;13.782;2023-06-10T10:46:55;100502.28;;;27.24;50.96
79150;BME280;68563;45.644;13.782;2023-06-10T10:49:22;100494.84;;;27.18;52.35
79150;BME280;68563;45.644;13.782;2023-06-10T10:51:59;100498.94;;;27.22;51.85
79150;BME280;68563;45.644;13.782;2023-06-10T10:54:32;100501.47;;;27.23;52.10
79150;BME280;68563;45.644;13.782;2023-06-10T11:02:17;100469.47;;;27.04;48.85
79150;BME280;68563;45.644;13.782;2023-06-10T11:04:47;100472.44;;;27.11;49.09
79150;BME280;68563;45.644;13.782;2023-06-10T11:07:13;100480.88;;;27.16;50.76
79150;BME280;68563;45.644;13.782;2023-06-10T11:10:08;100485.47;;;27.14;50.41
79150;BME280;68563;45.644;13.782;2023-06-10T11:15:26;100476.81;;;27.21;51.16
79150;BME280;68563;45.644;13.782;2023-06-10T11:18:14;100475.72;;;27.24;51.61
79150;BME280;68563;45.644;13.782;2023-06-10T11:31:21;100484.72;;;27.33;52.18
79150;BME280;68563;45.644;13.782;2023-06-10T11:33:47;100485.56;;;27.33;51.91
79150;BME280;68563;45.644;13.782;2023-06-10T11:36:14;100487.66;;;27.39;52.36
79150;BME280;68563;45.644;13.782;2023-06-10T11:38:40;100489.31;;;27.31;52.99
79150;BME280;68563;45.644;13.782;2023-06-10T11:41:06;100492.41;;;27.36;52.44
79150;BME280;68563;45.644;13.782;2023-06-10T11:43:33;100484.09;;;27.19;52.17
79150;BME280;68563;45.644;13.782;2023-06-10T11:45:59;100491.25;;;27.29;50.99
79150;BME280;68563;45.644;13.782;2023-06-10T11:48:25;100487.63;;;27.30;51.97
79150;BME280;68563;45.644;13.782;2023-06-10T11:50:53;100486.91;;;27.28;52.27
79150;BME280;68563;45.644;13.782;2023-06-10T11:53:19;100495.06;;;27.36;51.99
79150;BME280;68563;45.644;13.782;2023-06-10T11:55:45;100482.19;;;27.31;51.43
79150;BME280;68563;45.644;13.782;2023-06-10T11:58:19;100499.00;;;27.32;51.92
79150;BME280;68563;45.644;13.782;2023-06-10T12:00:55;100502.91;;;27.37;52.34
79150;BME280;68563;45.644;13.782;2023-06-10T12:03:24;100499.88;;;27.42;51.78
79150;BME280;68563;45.644;13.782;2023-06-10T12:06:10;100516.09;;;27.39;51.62
79150;BME280;68563;45.644;13.782;2023-06-10T12:08:41;100508.84;;;27.41;51.73
79150;BME280;68563;45.644;13.782;2023-06-10T12:11:08;100505.47;;;27.39;52.87
79150;BME280;68563;45.644;13.782;2023-06-10T12:13:33;100510.28;;;27.45;52.31
79150;BME280;68563;45.644;13.782;2023-06-10T12:16:09;100519.22;;;27.44;52.06
79150;BME280;68563;45.644;13.782;2023-06-10T12:18:34;100518.81;;;27.49;51.12
79150;BME280;68563;45.644;13.782;2023-06-10T12:21:02;100531.72;;;27.53;50.49
79150;BME280;68563;45.644;13.782;2023-06-10T12:23:28;100535.34;;;27.52;50.78
79150;BME280;68563;45.644;13.782;2023-06-10T12:25:55;100545.84;;;27.54;51.12
79150;BME280;68563;45.644;13.782;2023-06-10T12:28:22;100560.50;;;27.48;50.59
79150;BME280;68563;45.644;13.782;2023-06-10T12:30:48;100563.97;;;27.39;51.10
79150;BME280;68563;45.644;13.782;2023-06-10T12:33:20;100581.66;;;27.29;51.63
79150;BME280;68563;45.644;13.782;2023-06-10T12:35:54;100579.28;;;26.83;46.46
79150;BME280;68563;45.644;13.782;2023-06-10T12:38:23;100585.81;;;26.68;45.75
79150;BME280;68563;45.644;13.782;2023-06-10T12:40:53;100573.78;;;26.52;44.85
79150;BME280;68563;45.644;13.782;2023-06-10T12:43:22;100555.34;;;26.07;43.18
79150;BME280;68563;45.644;13.782;2023-06-10T12:45:49;100562.31;;;25.62;44.01
79150;BME280;68563;45.644;13.782;2023-06-10T12:48:19;100573.41;;;25.56;44.95
79150;BME280;68563;45.644;13.782;2023-06-10T12:50:50;100581.03;;;25.25;44.60
79150;BME280;68563;45.644;13.782;2023-06-10T12:53:16;100590.66;;;25.04;44.95
79150;BME280;68563;45.644;13.782;2023-06-10T12:55:41;100589.16;;;24.88;45.97
79150;BME280;68563;45.644;13.782;2023-06-10T12:58:07;100600.34;;;24.92;45.93
79150;BME280;68563;45.644;13.782;2023-06-10T13:00:32;100599.50;;;24.91;45.59
79150;BME280;68563;45.644;13.782;2023-06-10T13:03:00;100603.97;;;24.91;45.64